createdAt,value
2022-12-23T00:01:25.657Z,1.18
2022-12-23T00:03:52.737Z,1.14
2022-12-23T00:06:20.226Z,1.19
2022-12-23T00:08:46.922Z,1.16
2022-12-23T00:11:19.319Z,1.15
2022-12-23T00:14:04.963Z,1.11
2022-12-23T00:16:31.604Z,1.07
2022-12-23T00:18:58.179Z,1.06
2022-12-23T00:21:24.699Z,1.06
2022-12-23T00:23:51.710Z,1.02
2022-12-23T00:26:23.635Z,1.04
2022-12-23T00:28:51.069Z,0.99
2022-12-23T00:31:19.250Z,0.95
2022-12-23T00:33:48.293Z,0.91
2022-12-23T00:36:20.522Z,0.87
2022-12-23T00:39:05.913Z,0.89
2022-12-23T00:41:51.256Z,0.87
2022-12-23T00:44:17.811Z,0.88
2022-12-23T00:46:44.362Z,0.87
2022-12-23T00:49:34.374Z,0.79
2022-12-23T00:52:01.081Z,0.87
2022-12-23T00:54:28.000Z,0.89
2022-12-23T00:56:54.742Z,0.86
2022-12-23T00:59:21.241Z,0.87
2022-12-23T01:02:06.222Z,0.87
2022-12-23T01:04:51.263Z,0.89
2022-12-23T01:07:17.876Z,0.92
2022-12-23T01:09:44.423Z,0.98
2022-12-23T01:12:10.944Z,0.99
2022-12-23T01:14:37.575Z,0.91
2022-12-23T01:17:06.031Z,0.90
2022-12-23T01:19:32.627Z,0.86
2022-12-23T01:21:59.188Z,0.92
2022-12-23T01:24:32.395Z,0.94
2022-12-23T01:26:59.810Z,0.88
2022-12-23T01:29:26.405Z,0.90
2022-12-23T01:31:52.987Z,0.95
2022-12-23T01:34:19.816Z,0.92
2022-12-23T01:36:46.293Z,0.93
2022-12-23T01:39:12.941Z,0.93
2022-12-23T01:41:58.003Z,0.88
2022-12-23T01:44:49.027Z,0.92
2022-12-23T01:47:22.270Z,0.87
2022-12-23T01:49:51.016Z,0.95
2022-12-23T01:52:17.536Z,0.89
2022-12-23T01:54:44.739Z,0.90
2022-12-23T01:57:12.070Z,0.90
2022-12-23T01:59:57.958Z,0.82
2022-12-23T02:02:44.881Z,0.86
2022-12-23T02:05:12.242Z,0.89
2022-12-23T02:07:58.236Z,0.90
2022-12-23T02:10:41.408Z,0.91
2022-12-23T02:13:19.447Z,0.89
2022-12-23T02:16:09.737Z,0.85
2022-12-23T02:19:13.473Z,0.87
2022-12-23T02:22:01.585Z,0.78
2022-12-23T02:25:06.697Z,0.84
2022-12-23T11:45:43.934Z,15.08
2022-12-23T11:48:28.533Z,15.50
2022-12-23T11:51:01.169Z,16.01
2022-12-23T11:53:28.120Z,16.30
2022-12-23T11:56:05.355Z,16.73
2022-12-23T11:58:40.623Z,17.44
2022-12-23T12:01:14.853Z,17.82
2022-12-23T12:03:48.533Z,18.76
2022-12-23T12:06:17.165Z,18.18
2022-12-23T12:08:43.762Z,18.36
2022-12-23T12:11:17.248Z,17.20
2022-12-23T12:13:48.452Z,16.92
2022-12-23T12:16:34.171Z,16.60
2022-12-23T12:19:10.865Z,17.19
2022-12-23T12:21:38.841Z,16.92
2022-12-23T12:24:22.755Z,17.06
2022-12-23T12:26:52.851Z,16.60
2022-12-23T12:29:37.252Z,15.98
2022-12-23T12:32:10.416Z,15.08
2022-12-23T12:34:56.414Z,14.13
2022-12-23T12:37:36.745Z,13.24
2022-12-23T12:40:26.205Z,11.97
2022-12-23T12:43:12.577Z,10.28
2022-12-23T12:45:42.836Z,8.96
2022-12-23T12:48:25.239Z,8.33
2022-12-23T12:51:26.191Z,8.20
2022-12-23T12:54:16.266Z,7.85
2022-12-23T12:56:50.127Z,7.40
2022-12-23T12:59:19.798Z,7.19
2022-12-23T13:02:00.752Z,7.06
2022-12-23T13:04:30.359Z,7.25
2022-12-23T13:07:08.241Z,6.89
2022-12-23T13:10:00.269Z,6.87
2022-12-23T13:12:36.091Z,6.80
2022-12-23T13:15:23.674Z,6.65
2022-12-23T13:18:13.349Z,6.24
2022-12-23T13:20:48.655Z,6.08
2022-12-23T13:23:42.776Z,5.82
2022-12-23T13:26:34.785Z,5.50
2022-12-23T13:29:22.529Z,5.39
2022-12-23T13:31:58.460Z,5.30
2022-12-23T13:34:27.923Z,5.08
2022-12-23T13:37:09.961Z,5.03
2022-12-23T13:39:56.407Z,4.89
2022-12-23T13:42:34.283Z,4.57
2022-12-23T13:45:01.998Z,4.44
2022-12-23T13:47:47.389Z,4.25
2022-12-23T13:50:23.136Z,4.03
2022-12-23T13:52:55.497Z,3.88
2022-12-23T13:55:47.285Z,3.82
2022-12-23T13:58:18.341Z,3.73
2022-12-23T14:00:44.943Z,3.70
2022-12-23T14:03:14.065Z,3.59
2022-12-23T14:05:51.139Z,3.43
2022-12-23T14:08:25.742Z,3.39
2022-12-23T14:11:03.077Z,3.31
2022-12-23T14:14:05.987Z,3.24
2022-12-23T14:16:56.822Z,3.13
2022-12-23T14:19:51.054Z,3.02
2022-12-23T14:22:32.648Z,2.99
2022-12-23T14:25:21.767Z,2.98
2022-12-23T14:27:59.961Z,3.12
2022-12-23T14:30:42.816Z,3.04
2022-12-23T14:33:18.574Z,3.08
2022-12-23T14:35:45.087Z,3.02
2022-12-23T14:38:14.302Z,3.05
2022-12-23T14:40:48.576Z,3.01
2022-12-23T14:43:27.066Z,2.98
2022-12-23T14:45:58.118Z,3.06
2022-12-23T14:48:33.653Z,3.04
2022-12-23T14:51:09.900Z,3.09
2022-12-23T14:53:58.192Z,3.09
2022-12-23T14:56:39.778Z,3.00
2022-12-23T14:59:09.014Z,3.00
2022-12-23T15:01:46.655Z,2.99
2022-12-23T15:04:27.214Z,2.98
2022-12-23T15:06:58.790Z,3.00
2022-12-23T15:09:31.846Z,2.99
2022-12-23T15:12:11.085Z,2.94
2022-12-23T15:14:43.040Z,2.96
2022-12-23T15:17:38.783Z,2.91
2022-12-23T15:33:02.478Z,3.01
2022-12-23T15:35:32.806Z,2.89
2022-12-23T15:38:01.819Z,2.94
2022-12-23T15:40:37.068Z,2.89
2022-12-23T15:43:24.020Z,2.93
2022-12-23T15:45:50.998Z,2.98
2022-12-23T15:48:32.292Z,2.99
2022-12-23T15:51:08.346Z,2.99
2022-12-23T15:53:37.209Z,2.95
2022-12-23T15:56:08.322Z,2.96
2022-12-23T15:58:37.486Z,2.96
2022-12-23T16:01:04.860Z,2.97
2022-12-23T16:03:39.358Z,2.92
2022-12-23T16:06:25.320Z,2.88
2022-12-23T16:09:05.318Z,2.77
2022-12-23T16:11:56.726Z,2.68
2022-12-23T16:14:31.170Z,2.67
2022-12-23T16:17:07.631Z,2.66
2022-12-23T16:19:42.240Z,2.63
2022-12-23T16:22:37.313Z,2.67
2022-12-23T16:25:24.854Z,2.74
2022-12-23T16:28:07.757Z,2.74
2022-12-23T16:30:37.279Z,2.73
2022-12-23T16:33:32.014Z,2.74
2022-12-23T16:36:34.585Z,2.73
2022-12-23T16:39:16.998Z,2.72
2022-12-23T16:41:43.532Z,2.63
2022-12-23T16:44:10.054Z,2.55
2022-12-23T16:46:39.813Z,2.55
2022-12-23T16:49:11.176Z,2.57
2022-12-23T16:51:39.528Z,2.55
2022-12-23T16:54:06.091Z,2.54
2022-12-23T16:56:37.442Z,2.44
2022-12-23T16:59:04.558Z,2.35
2022-12-23T17:01:35.225Z,2.28
2022-12-23T17:04:02.209Z,2.13
2022-12-23T17:06:28.799Z,2.06
2022-12-23T17:08:56.889Z,2.03
2022-12-23T17:11:47.136Z,2.00
2022-12-23T17:14:20.375Z,2.12
2022-12-23T17:16:48.111Z,2.10
2022-12-23T17:19:15.525Z,2.17
2022-12-23T17:21:44.475Z,2.16
2022-12-23T17:24:22.062Z,2.19
2022-12-23T17:26:48.681Z,2.25
2022-12-23T17:29:15.331Z,2.29
2022-12-23T17:31:43.785Z,2.32
2022-12-23T17:34:16.110Z,2.34
2022-12-23T17:36:49.315Z,2.34
2022-12-23T17:39:16.840Z,2.33
2022-12-23T17:41:43.404Z,2.38
2022-12-23T17:44:13.919Z,2.38
2022-12-23T17:46:40.446Z,2.40
2022-12-23T17:49:06.929Z,2.33
2022-12-23T17:51:33.603Z,2.32
2022-12-23T17:54:00.142Z,2.37
2022-12-23T17:56:28.758Z,2.37
2022-12-23T17:58:55.408Z,2.42
2022-12-23T18:01:25.200Z,2.40
2022-12-23T18:03:52.657Z,2.43
2022-12-23T18:06:20.783Z,2.41
2022-12-23T18:08:47.863Z,2.42
2022-12-23T18:11:44.763Z,2.38
2022-12-23T18:14:14.503Z,2.31
2022-12-23T18:16:41.025Z,2.29
2022-12-23T18:19:18.100Z,2.29
2022-12-23T18:21:44.975Z,2.33
2022-12-23T18:24:11.491Z,2.38
2022-12-23T18:26:38.089Z,2.33
2022-12-23T18:29:04.746Z,2.33
2022-12-23T18:31:31.452Z,2.34
2022-12-23T18:33:59.637Z,2.29
2022-12-23T18:36:31.251Z,2.32
2022-12-23T18:38:57.809Z,2.29
2022-12-23T18:41:25.923Z,2.36
2022-12-23T23:21:29.369Z,1.50
2022-12-23T23:23:55.889Z,1.58
2022-12-23T23:26:26.764Z,1.60
2022-12-23T23:28:54.694Z,1.64
2022-12-23T23:34:07.899Z,1.67
2022-12-23T23:36:34.642Z,1.65
2022-12-23T23:39:01.224Z,1.63
2022-12-23T23:41:27.771Z,1.58
2022-12-23T23:43:54.261Z,1.52
2022-12-23T23:46:20.824Z,1.49
2022-12-23T23:48:47.690Z,1.47
2022-12-23T23:51:14.236Z,1.53
2022-12-23T23:53:40.831Z,1.47
2022-12-23T23:56:08.322Z,1.50
2022-12-23T23:58:36.448Z,1.44
